DIRECCIÓN GENERAL DE AERONÁUTICA CIVIL
DIRECCIÓN METEOROLÓGICA DE CHILE
INFORMACIÓN METAR Y TAF

FIR SANTIAGO

Estación: SCSE
METAR SCSE 201300Z 26006KT CAVOK 13/11 Q1014=

TAF SCSE 201032Z 2012/2112 VRB02KT CAVOK TX18/2019Z TN10/2110Z TEMPO 2012/2015 12004KT BKN010 BECMG 2014/2016 29010KT BECMG 2022/2024 28005KT BECMG 2100/2102 VRB02KT TEMPO 2106/2112 12004KT BKN012=

Estación: SCER
METAR SCER 161100Z 00000KT 7000 OVC014 12/10 Q1015=

TAF SCER NIL=

Estación: SCRD
METAR SCRD 201300Z 00000KT CAVOK 14/05 Q1015=

TAF SCRD 201034Z 2012/2024 18008KT CAVOK TX26/2018Z TN11/2012Z=

Estación: SCVM
METAR SCVM 201300Z 00000KT CAVOK 14/07 Q1015=

TAF SCVM 201033Z 2012/2112 VRB02KT CAVOK TX23/2020Z TN09/2110Z TEMPO 2012/2015 15004KT BECMG 2014/2016 33010KT BECMG 2100/2102 VRB02KT TEMPO 2106/2112 15004KT BKN010=

Estación: SCTB
METAR SCTB 201300Z 00000KT CAVOK 13/05 Q1017=

TAF SCTB 201035Z 2012/2024 20008KT CAVOK TX26/2018Z TN07/2012Z TEMPO 2012/2016 VRB02KT=

Estación: SCEL
METAR SCEL 201300Z 04003KT 020V110 8000 NSC 10/M03 Q1016 NOSIG=

TAF SCEL 201033Z 2012/2112 VRB02KT CAVOK TX27/2019Z TN06/2110Z TEMPO 2012/2016 17005KT BECMG 2017/2019 19010KT BECMG 2100/2102 VRB02KT TEMPO 2100/2105 16005KT=

Estación: SCSN
METAR SCSN 201300Z 00000KT CAVOK 11/06 Q1016=

TAF SCSN 201034Z 2012/2024 23008KT CAVOK TX21/2018Z TN09/2012Z TEMPO 2012/2016 13005KT=

Estación: SCRG
METAR SCRG 172000Z 19012KT CAVOK ///// Q1015=

TAF SCRG 171010Z 1712/1724 VRB02KT 6000 NSC TX22/1718Z TN09/1712Z TEMPO 1712/1713 2000 BR BKN003 BECMG 1714/1716 19012KT CAVOK=

Estación: SCIC
METAR SCIC 201300Z 17004KT CAVOK 08/06 Q1017=

TAF SCIC 201035Z 2012/2024 19008KT CAVOK TX21/2018Z TN04/2012Z=

Estación: SCCH
METAR SCCH 201300Z 21001KT 9999 FEW010 SCT070 08/07 Q1018=

TAF SCCH 201203Z 2013/2024 21006KT CAVOK TX20/2018Z TN05/2012Z TEMPO 2013/2017 BKN070=

Estación: SCIE
METAR SCIE 201300Z 16004KT 090V200 CAVOK 10/07 Q1019=

TAF SCIE 201034Z 2012/2112 21005KT CAVOK TX17/2018Z TN08/2110Z TEMPO 2012/2016 17005KT SCT045 BECMG 2015/2017 23010KT BECMG 2100/2102 21005KT TEMPO 2107/2112 17004KT=

Estación: SCGE
METAR SCGE 201300Z 18008KT 9999 BKN020 09/06 Q1018=

TAF SCGE 201204Z 2013/2024 18009KT CAVOK TX19/2018Z TN05/2012Z TEMPO 2013/2017 BKN020=


Volver